sensor_id;sensor_type;location;lat;lon;timestamp;pressure;altitude;pressure_sealevel;temperature;humidity
79138;BME280;68544;45.566;10.238;2024-01-15T00:02:11;98774.69;;;7.01;85.50
79138;BME280;68544;45.566;10.238;2024-01-15T00:04:38;98766.44;;;6.96;85.66
79138;BME280;68544;45.566;10.238;2024-01-15T00:07:03;98759.69;;;6.58;88.01
79138;BME280;68544;45.566;10.238;2024-01-15T00:09:29;98747.28;;;6.78;86.30
79138;BME280;68544;45.566;10.238;2024-01-15T00:11:54;98747.34;;;7.12;83.78
79138;BME280;68544;45.566;10.238;2024-01-15T00:14:19;98745.53;;;7.19;81.81
79138;BME280;68544;45.566;10.238;2024-01-15T00:16:45;98743.75;;;7.05;83.45
79138;BME280;68544;45.566;10.238;2024-01-15T00:19:11;98735.28;;;7.01;82.04
79138;BME280;68544;45.566;10.238;2024-01-15T00:21:36;98740.28;;;7.04;81.75
79138;BME280;68544;45.566;10.238;2024-01-15T00:24:01;98734.13;;;7.10;81.66
79138;BME280;68544;45.566;10.238;2024-01-15T00:26:27;98731.19;;;7.05;81.14
79138;BME280;68544;45.566;10.238;2024-01-15T00:28:52;98731.13;;;6.99;80.89
79138;BME280;68544;45.566;10.238;2024-01-15T00:31:17;98735.97;;;6.82;83.28
79138;BME280;68544;45.566;10.238;2024-01-15T00:33:43;98734.59;;;6.93;83.60
79138;BME280;68544;45.566;10.238;2024-01-15T00:36:08;98724.13;;;6.70;85.60
79138;BME280;68544;45.566;10.238;2024-01-15T00:38:34;98724.41;;;6.82;84.19
79138;BME280;68544;45.566;10.238;2024-01-15T00:40:59;98717.34;;;6.74;84.02
79138;BME280;68544;45.566;10.238;2024-01-15T00:43:25;98711.75;;;6.76;84.39
79138;BME280;68544;45.566;10.238;2024-01-15T00:45:50;98710.03;;;6.89;83.89
79138;BME280;68544;45.566;10.238;2024-01-15T00:48:15;98713.13;;;6.93;84.15
79138;BME280;68544;45.566;10.238;2024-01-15T00:50:41;98709.44;;;7.28;81.21
79138;BME280;68544;45.566;10.238;2024-01-15T00:53:06;98702.97;;;7.50;79.44
79138;BME280;68544;45.566;10.238;2024-01-15T00:55:32;98698.34;;;7.38;79.62
79138;BME280;68544;45.566;10.238;2024-01-15T00:57:57;98707.03;;;7.40;79.90
79138;BME280;68544;45.566;10.238;2024-01-15T01:00:22;98706.16;;;7.33;79.80
79138;BME280;68544;45.566;10.238;2024-01-15T01:02:48;98714.53;;;7.16;80.34
79138;BME280;68544;45.566;10.238;2024-01-15T01:05:13;98710.72;;;6.98;82.70
79138;BME280;68544;45.566;10.238;2024-01-15T01:07:39;98699.34;;;7.02;84.88
79138;BME280;68544;45.566;10.238;2024-01-15T01:10:04;98703.25;;;7.28;82.64
79138;BME280;68544;45.566;10.238;2024-01-15T01:12:30;98697.28;;;7.32;81.89
79138;BME280;68544;45.566;10.238;2024-01-15T01:14:55;98698.97;;;7.05;82.70
79138;BME280;68544;45.566;10.238;2024-01-15T01:17:21;98693.41;;;7.41;81.24
79138;BME280;68544;45.566;10.238;2024-01-15T01:19:47;98690.97;;;7.46;78.66
79138;BME280;68544;45.566;10.238;2024-01-15T01:22:12;98694.13;;;7.22;79.60
79138;BME280;68544;45.566;10.238;2024-01-15T01:24:38;98681.72;;;6.87;81.83
79138;BME280;68544;45.566;10.238;2024-01-15T01:27:03;98687.91;;;7.22;80.73
79138;BME280;68544;45.566;10.238;2024-01-15T01:29:28;98679.28;;;7.26;79.75
79138;BME280;68544;45.566;10.238;2024-01-15T01:31:54;98676.59;;;7.26;79.84
79138;BME280;68544;45.566;10.238;2024-01-15T01:34:19;98672.72;;;7.01;81.91
79138;BME280;68544;45.566;10.238;2024-01-15T01:36:45;98666.34;;;7.02;81.85
79138;BME280;68544;45.566;10.238;2024-01-15T01:39:10;98681.00;;;6.72;84.37
79138;BME280;68544;45.566;10.238;2024-01-15T01:41:36;98669.31;;;6.79;84.47
79138;BME280;68544;45.566;10.238;2024-01-15T01:44:01;98666.56;;;6.73;85.28
79138;BME280;68544;45.566;10.238;2024-01-15T01:46:27;98648.66;;;6.80;85.47
79138;BME280;68544;45.566;10.238;2024-01-15T01:48:54;98647.38;;;7.03;83.13
79138;BME280;68544;45.566;10.238;2024-01-15T01:51:22;98645.97;;;6.80;83.49
79138;BME280;68544;45.566;10.238;2024-01-15T01:53:48;98633.03;;;6.56;85.08
79138;BME280;68544;45.566;10.238;2024-01-15T01:56:15;98642.97;;;6.34;86.88
79138;BME280;68544;45.566;10.238;2024-01-15T01:58:42;98642.25;;;6.25;88.73
79138;BME280;68544;45.566;10.238;2024-01-15T02:01:08;98636.41;;;6.15;89.80
79138;BME280;68544;45.566;10.238;2024-01-15T02:03:33;98639.59;;;6.25;90.01
79138;BME280;68544;45.566;10.238;2024-01-15T02:06:00;98620.00;;;6.04;90.79
79138;BME280;68544;45.566;10.238;2024-01-15T02:08:26;98632.91;;;5.94;91.70
79138;BME280;68544;45.566;10.238;2024-01-15T02:10:51;98616.00;;;5.93;92.63
79138;BME280;68544;45.566;10.238;2024-01-15T02:13:17;98617.50;;;6.23;90.38
79138;BME280;68544;45.566;10.238;2024-01-15T02:15:43;98619.91;;;6.39;87.92
79138;BME280;68544;45.566;10.238;2024-01-15T02:18:08;98617.22;;;6.39;87.94
79138;BME280;68544;45.566;10.238;2024-01-15T02:20:34;98622.47;;;6.54;86.71
79138;BME280;68544;45.566;10.238;2024-01-15T02:25:39;98621.81;;;6.46;86.94
79138;BME280;68544;45.566;10.238;2024-01-15T02:28:06;98627.81;;;6.48;85.32
79138;BME280;68544;45.566;10.238;2024-01-15T02:30:36;98626.78;;;6.49;85.62
79138;BME280;68544;45.566;10.238;2024-01-15T02:33:03;98630.63;;;6.67;85.09
79138;BME280;68544;45.566;10.238;2024-01-15T02:35:28;98632.03;;;6.63;84.13
79138;BME280;68544;45.566;10.238;2024-01-15T02:37:53;98628.09;;;6.59;84.98
79138;BME280;68544;45.566;10.238;2024-01-15T02:40:19;98637.19;;;6.92;83.03
79138;BME280;68544;45.566;10.238;2024-01-15T02:42:44;98625.94;;;6.76;83.05
79138;BME280;68544;45.566;10.238;2024-01-15T02:45:09;98628.41;;;6.71;82.29
79138;BME280;68544;45.566;10.238;2024-01-15T02:47:35;98626.69;;;6.63;83.21
79138;BME280;68544;45.566;10.238;2024-01-15T02:50:00;98627.19;;;6.80;82.76
79138;BME280;68544;45.566;10.238;2024-01-15T02:52:25;98626.56;;;6.78;82.96
79138;BME280;68544;45.566;10.238;2024-01-15T02:54:51;98620.31;;;7.05;80.62
79138;BME280;68544;45.566;10.238;2024-01-15T02:57:16;98622.16;;;6.98;80.50
79138;BME280;68544;45.566;10.238;2024-01-15T02:59:41;98608.66;;;6.85;79.12
79138;BME280;68544;45.566;10.238;2024-01-15T03:02:07;98613.69;;;6.60;81.11
79138;BME280;68544;45.566;10.238;2024-01-15T03:04:32;98601.75;;;6.42;83.69
79138;BME280;68544;45.566;10.238;2024-01-15T03:06:58;98605.59;;;6.54;82.70
79138;BME280;68544;45.566;10.238;2024-01-15T03:09:23;98605.41;;;6.89;80.74
79138;BME280;68544;45.566;10.238;2024-01-15T03:11:48;98596.50;;;6.89;80.05
79138;BME280;68544;45.566;10.238;2024-01-15T03:14:14;98603.06;;;6.80;80.37
79138;BME280;68544;45.566;10.238;2024-01-15T03:16:39;98594.47;;;6.91;79.97
79138;BME280;68544;45.566;10.238;2024-01-15T03:19:05;98595.16;;;6.72;80.09
79138;BME280;68544;45.566;10.238;2024-01-15T03:21:30;98591.59;;;6.65;80.69
79138;BME280;68544;45.566;10.238;2024-01-15T03:23:56;98585.41;;;6.92;79.41
79138;BME280;68544;45.566;10.238;2024-01-15T03:26:21;98572.66;;;7.13;77.67
79138;BME280;68544;45.566;10.238;2024-01-15T03:28:46;98569.53;;;6.63;80.42
79138;BME280;68544;45.566;10.238;2024-01-15T03:31:12;98553.94;;;6.73;80.93
79138;BME280;68544;45.566;10.238;2024-01-15T03:33:37;98556.44;;;6.81;79.46
79138;BME280;68544;45.566;10.238;2024-01-15T03:36:03;98557.44;;;6.39;82.85
79138;BME280;68544;45.566;10.238;2024-01-15T03:38:28;98552.09;;;6.80;81.04
79138;BME280;68544;45.566;10.238;2024-01-15T03:40:54;98540.84;;;7.04;79.33
79138;BME280;68544;45.566;10.238;2024-01-15T03:43:19;98539.13;;;6.83;79.79
79138;BME280;68544;45.566;10.238;2024-01-15T03:45:45;98537.78;;;6.66;79.57
79138;BME280;68544;45.566;10.238;2024-01-15T03:48:11;98534.53;;;6.71;80.57
79138;BME280;68544;45.566;10.238;2024-01-15T03:50:36;98520.78;;;6.53;81.79
79138;BME280;68544;45.566;10.238;2024-01-15T03:53:02;98517.00;;;6.41;84.30
79138;BME280;68544;45.566;10.238;2024-01-15T03:55:27;98463.81;;;6.03;84.90
79138;BME280;68544;45.566;10.238;2024-01-15T03:57:52;98505.25;;;6.07;87.49
79138;BME280;68544;45.566;10.238;2024-01-15T04:00:18;98518.97;;;5.98;89.13
79138;BME280;68544;45.566;10.238;2024-01-15T04:02:43;98500.38;;;5.90;90.54
79138;BME280;68544;45.566;10.238;2024-01-15T04:05:09;98500.31;;;6.11;88.99
79138;BME280;68544;45.566;10.238;2024-01-15T04:07:35;98499.03;;;6.69;84.87
79138;BME280;68544;45.566;10.238;2024-01-15T04:10:00;98507.94;;;6.42;85.20
79138;BME280;68544;45.566;10.238;2024-01-15T04:12:26;98505.88;;;6.44;85.84
79138;BME280;68544;45.566;10.238;2024-01-15T04:14:51;98510.88;;;6.47;86.28
79138;BME280;68544;45.566;10.238;2024-01-15T04:17:17;98515.97;;;6.35;86.63
79138;BME280;68544;45.566;10.238;2024-01-15T04:19:46;98507.88;;;6.28;87.02
79138;BME280;68544;45.566;10.238;2024-01-15T04:22:13;98506.84;;;6.29;86.68
79138;BME280;68544;45.566;10.238;2024-01-15T04:24:38;98512.94;;;6.17;86.30
79138;BME280;68544;45.566;10.238;2024-01-15T04:27:04;98512.91;;;6.45;84.60
79138;BME280;68544;45.566;10.238;2024-01-15T04:29:29;98500.47;;;6.30;84.29
79138;BME280;68544;45.566;10.238;2024-01-15T04:31:55;98504.59;;;6.74;81.39
79138;BME280;68544;45.566;10.238;2024-01-15T04:34:20;98492.66;;;6.35;82.10
79138;BME280;68544;45.566;10.238;2024-01-15T04:36:45;98492.25;;;6.38;82.94
79138;BME280;68544;45.566;10.238;2024-01-15T04:39:11;98474.88;;;6.75;79.86
79138;BME280;68544;45.566;10.238;2024-01-15T04:41:37;98470.31;;;6.63;79.76
79138;BME280;68544;45.566;10.238;2024-01-15T04:44:02;98465.00;;;6.76;79.73
79138;BME280;68544;45.566;10.238;2024-01-15T04:46:28;98462.34;;;6.82;79.75
79138;BME280;68544;45.566;10.238;2024-01-15T04:48:53;98457.84;;;6.96;78.90
79138;BME280;68544;45.566;10.238;2024-01-15T04:51:19;98474.31;;;6.86;79.17
79138;BME280;68544;45.566;10.238;2024-01-15T04:53:44;98475.69;;;6.69;79.34
79138;BME280;68544;45.566;10.238;2024-01-15T04:56:10;98479.91;;;6.44;82.15
79138;BME280;68544;45.566;10.238;2024-01-15T04:58:35;98476.19;;;6.38;83.44
79138;BME280;68544;45.566;10.238;2024-01-15T05:01:00;98457.69;;;6.57;83.03
79138;BME280;68544;45.566;10.238;2024-01-15T05:03:26;98465.03;;;6.42;83.72
79138;BME280;68544;45.566;10.238;2024-01-15T05:05:51;98465.03;;;6.35;84.11
79138;BME280;68544;45.566;10.238;2024-01-15T05:08:16;98472.88;;;6.36;84.05
79138;BME280;68544;45.566;10.238;2024-01-15T05:10:42;98455.63;;;6.59;82.57
79138;BME280;68544;45.566;10.238;2024-01-15T05:13:07;98454.00;;;6.58;82.69
79138;BME280;68544;45.566;10.238;2024-01-15T05:15:32;98451.22;;;6.38;83.63
79138;BME280;68544;45.566;10.238;2024-01-15T05:17:58;98437.06;;;6.51;81.72
79138;BME280;68544;45.566;10.238;2024-01-15T05:20:23;98438.22;;;6.42;82.77
79138;BME280;68544;45.566;10.238;2024-01-15T05:22:48;98428.84;;;6.65;81.44
79138;BME280;68544;45.566;10.238;2024-01-15T05:25:14;98424.75;;;6.69;81.19
79138;BME280;68544;45.566;10.238;2024-01-15T05:27:39;98421.41;;;6.61;79.91
79138;BME280;68544;45.566;10.238;2024-01-15T05:30:05;98411.94;;;6.65;80.41
79138;BME280;68544;45.566;10.238;2024-01-15T05:32:30;98411.97;;;6.78;79.04
79138;BME280;68544;45.566;10.238;2024-01-15T05:34:55;98418.06;;;6.52;81.11
79138;BME280;68544;45.566;10.238;2024-01-15T05:37:21;98421.66;;;6.25;83.27
79138;BME280;68544;45.566;10.238;2024-01-15T05:39:46;98412.63;;;6.26;85.48
79138;BME280;68544;45.566;10.238;2024-01-15T05:42:11;98412.19;;;6.22;85.99
79138;BME280;68544;45.566;10.238;2024-01-15T05:44:37;98414.72;;;6.44;85.00
79138;BME280;68544;45.566;10.238;2024-01-15T05:47:03;98422.84;;;6.09;86.36
79138;BME280;68544;45.566;10.238;2024-01-15T05:49:29;98418.84;;;6.33;86.17
79138;BME280;68544;45.566;10.238;2024-01-15T05:51:54;98413.19;;;6.62;83.70
79138;BME280;68544;45.566;10.238;2024-01-15T05:54:20;98419.66;;;6.33;84.20
79138;BME280;68544;45.566;10.238;2024-01-15T05:56:45;98417.47;;;6.09;85.83
79138;BME280;68544;45.566;10.238;2024-01-15T05:59:11;98421.50;;;5.92;87.43
79138;BME280;68544;45.566;10.238;2024-01-15T06:01:36;98415.63;;;5.82;88.21
79138;BME280;68544;45.566;10.238;2024-01-15T06:04:01;98411.16;;;5.89;87.71
79138;BME280;68544;45.566;10.238;2024-01-15T06:06:27;98408.41;;;6.10;86.33
79138;BME280;68544;45.566;10.238;2024-01-15T06:08:52;98406.78;;;6.16;85.45
79138;BME280;68544;45.566;10.238;2024-01-15T06:11:18;98412.56;;;5.85;87.96
79138;BME280;68544;45.566;10.238;2024-01-15T06:13:43;98411.75;;;5.85;88.68
79138;BME280;68544;45.566;10.238;2024-01-15T06:16:15;98409.44;;;5.82;87.78
79138;BME280;68544;45.566;10.238;2024-01-15T06:18:45;98425.63;;;5.95;87.30
79138;BME280;68544;45.566;10.238;2024-01-15T06:21:10;98409.78;;;5.72;87.33
79138;BME280;68544;45.566;10.238;2024-01-15T06:23:38;98404.09;;;5.54;90.62
79138;BME280;68544;45.566;10.238;2024-01-15T06:26:03;98409.59;;;5.46;91.54
79138;BME280;68544;45.566;10.238;2024-01-15T06:28:29;98394.66;;;5.58;91.20
79138;BME280;68544;45.566;10.238;2024-01-15T06:30:54;98402.78;;;5.71;90.17
79138;BME280;68544;45.566;10.238;2024-01-15T06:33:20;98394.06;;;5.63;89.23
79138;BME280;68544;45.566;10.238;2024-01-15T06:35:45;98406.13;;;5.80;88.78
79138;BME280;68544;45.566;10.238;2024-01-15T06:38:10;98408.19;;;5.50;89.09
79138;BME280;68544;45.566;10.238;2024-01-15T06:40:36;98413.78;;;5.55;88.91
79138;BME280;68544;45.566;10.238;2024-01-15T06:43:01;98410.72;;;5.58;88.85
79138;BME280;68544;45.566;10.238;2024-01-15T06:45:26;98404.22;;;5.46;89.80
79138;BME280;68544;45.566;10.238;2024-01-15T06:47:52;98390.22;;;5.44;89.66
79138;BME280;68544;45.566;10.238;2024-01-15T06:50:17;98396.78;;;5.69;88.22
79138;BME280;68544;45.566;10.238;2024-01-15T06:52:42;98394.91;;;5.63;87.07
79138;BME280;68544;45.566;10.238;2024-01-15T06:55:08;98392.00;;;5.65;86.69
79138;BME280;68544;45.566;10.238;2024-01-15T06:57:33;98388.13;;;5.39;88.67
79138;BME280;68544;45.566;10.238;2024-01-15T06:59:59;98388.94;;;5.95;85.49
79138;BME280;68544;45.566;10.238;2024-01-15T07:02:24;98382.19;;;5.99;85.24
79138;BME280;68544;45.566;10.238;2024-01-15T07:04:50;98391.59;;;6.29;82.76
79138;BME280;68544;45.566;10.238;2024-01-15T07:07:15;98400.13;;;6.46;80.85
79138;BME280;68544;45.566;10.238;2024-01-15T07:09:40;98397.50;;;6.18;81.83
79138;BME280;68544;45.566;10.238;2024-01-15T07:12:06;98415.50;;;6.31;81.50
79138;BME280;68544;45.566;10.238;2024-01-15T07:14:31;98413.09;;;6.43;80.03
79138;BME280;68544;45.566;10.238;2024-01-15T07:16:57;98414.69;;;6.30;79.95
79138;BME280;68544;45.566;10.238;2024-01-15T07:19:22;98421.56;;;6.05;82.01
79138;BME280;68544;45.566;10.238;2024-01-15T07:21:47;98406.97;;;6.14;80.88
79138;BME280;68544;45.566;10.238;2024-01-15T07:24:13;98408.81;;;6.07;81.59
79138;BME280;68544;45.566;10.238;2024-01-15T07:26:38;98405.38;;;6.20;81.33
79138;BME280;68544;45.566;10.238;2024-01-15T07:29:04;98406.66;;;6.30;79.59
79138;BME280;68544;45.566;10.238;2024-01-15T07:31:29;98411.75;;;6.19;80.23
79138;BME280;68544;45.566;10.238;2024-01-15T07:33:55;98406.78;;;6.16;81.01
79138;BME280;68544;45.566;10.238;2024-01-15T07:36:20;98408.81;;;6.07;81.59
79138;BME280;68544;45.566;10.238;2024-01-15T07:38:46;98403.69;;;6.19;80.41
79138;BME280;68544;45.566;10.238;2024-01-15T07:41:13;98408.19;;;5.78;83.35
79138;BME280;68544;45.566;10.238;2024-01-15T07:43:38;98405.94;;;5.53;85.53
79138;BME280;68544;45.566;10.238;2024-01-15T07:46:04;98401.13;;;5.42;86.88
79138;BME280;68544;45.566;10.238;2024-01-15T07:48:29;98395.66;;;5.29;87.80
79138;BME280;68544;45.566;10.238;2024-01-15T07:50:54;98402.56;;;5.45;87.88
79138;BME280;68544;45.566;10.238;2024-01-15T07:53:20;98406.94;;;6.01;83.75
79138;BME280;68544;45.566;10.238;2024-01-15T07:55:45;98401.91;;;6.26;79.98
79138;BME280;68544;45.566;10.238;2024-01-15T07:58:11;98399.41;;;6.24;78.57
79138;BME280;68544;45.566;10.238;2024-01-15T08:00:37;98398.91;;;6.08;78.52
79138;BME280;68544;45.566;10.238;2024-01-15T08:03:02;98408.34;;;5.97;80.85
79138;BME280;68544;45.566;10.238;2024-01-15T08:05:28;98333.78;;;6.07;78.02
79138;BME280;68544;45.566;10.238;2024-01-15T08:07:53;98401.44;;;6.70;77.18
79138;BME280;68544;45.566;10.238;2024-01-15T08:10:18;98395.69;;;6.73;77.06
79138;BME280;68544;45.566;10.238;2024-01-15T08:12:44;98400.06;;;7.13;74.45
79138;BME280;68544;45.566;10.238;2024-01-15T08:15:10;98397.63;;;7.25;72.95
79138;BME280;68544;45.566;10.238;2024-01-15T08:17:35;98396.59;;;7.19;72.91
79138;BME280;68544;45.566;10.238;2024-01-15T08:20:00;98407.13;;;7.27;72.57
79138;BME280;68544;45.566;10.238;2024-01-15T08:22:26;98398.47;;;7.38;71.93
79138;BME280;68544;45.566;10.238;2024-01-15T08:24:51;98396.38;;;7.86;69.92
79138;BME280;68544;45.566;10.238;2024-01-15T08:27:17;98397.22;;;7.60;70.51
79138;BME280;68544;45.566;10.238;2024-01-15T08:29:42;98383.56;;;7.62;70.68
79138;BME280;68544;45.566;10.238;2024-01-15T08:32:08;98399.28;;;7.58;71.17
79138;BME280;68544;45.566;10.238;2024-01-15T08:34:39;98407.31;;;7.32;72.37
79138;BME280;68544;45.566;10.238;2024-01-15T08:37:04;98397.00;;;7.68;70.48
79138;BME280;68544;45.566;10.238;2024-01-15T08:39:29;98398.66;;;7.69;69.46
79138;BME280;68544;45.566;10.238;2024-01-15T08:41:55;98387.69;;;7.77;69.59
79138;BME280;68544;45.566;10.238;2024-01-15T08:44:20;98398.81;;;8.01;69.67
79138;BME280;68544;45.566;10.238;2024-01-15T08:46:45;98397.59;;;7.77;69.02
79138;BME280;68544;45.566;10.238;2024-01-15T08:49:10;98408.13;;;7.91;68.12
79138;BME280;68544;45.566;10.238;2024-01-15T08:51:36;98406.19;;;8.31;67.39
79138;BME280;68544;45.566;10.238;2024-01-15T08:54:02;98414.06;;;8.20;67.01
79138;BME280;68544;45.566;10.238;2024-01-15T08:56:28;98413.16;;;8.52;65.32
79138;BME280;68544;45.566;10.238;2024-01-15T08:58:53;98417.88;;;8.63;64.62
79138;BME280;68544;45.566;10.238;2024-01-15T09:01:19;98404.28;;;8.89;63.81
79138;BME280;68544;45.566;10.238;2024-01-15T09:03:44;98400.56;;;8.84;62.17
79138;BME280;68544;45.566;10.238;2024-01-15T09:06:10;98403.41;;;9.02;62.06
79138;BME280;68544;45.566;10.238;2024-01-15T09:08:35;98401.72;;;9.32;60.99
79138;BME280;68544;45.566;10.238;2024-01-15T09:11:01;98404.81;;;9.60;59.59
79138;BME280;68544;45.566;10.238;2024-01-15T09:13:28;98397.53;;;9.67;58.99
79138;BME280;68544;45.566;10.238;2024-01-15T09:15:53;98410.75;;;9.69;59.03
79138;BME280;68544;45.566;10.238;2024-01-15T09:18:18;98410.16;;;9.67;58.54
79138;BME280;68544;45.566;10.238;2024-01-15T09:20:44;98406.06;;;10.07;56.90
79138;BME280;68544;45.566;10.238;2024-01-15T09:23:09;98410.50;;;9.52;59.70
79138;BME280;68544;45.566;10.238;2024-01-15T09:25:34;98411.03;;;9.85;58.01
79138;BME280;68544;45.566;10.238;2024-01-15T09:28:00;98407.81;;;9.21;58.83
79138;BME280;68544;45.566;10.238;2024-01-15T09:30:25;98413.41;;;9.19;59.69
79138;BME280;68544;45.566;10.238;2024-01-15T09:32:50;98412.16;;;9.78;57.87
79138;BME280;68544;45.566;10.238;2024-01-15T09:35:16;98396.97;;;9.59;56.92
79138;BME280;68544;45.566;10.238;2024-01-15T09:37:41;98408.78;;;9.57;57.10
79138;BME280;68544;45.566;10.238;2024-01-15T09:40:08;98413.75;;;10.03;55.27
79138;BME280;68544;45.566;10.238;2024-01-15T09:42:38;98408.50;;;10.15;54.92
79138;BME280;68544;45.566;10.238;2024-01-15T09:45:04;98409.09;;;10.53;53.57
79138;BME280;68544;45.566;10.238;2024-01-15T09:47:30;98406.03;;;10.97;53.26
79138;BME280;68544;45.566;10.238;2024-01-15T09:49:55;98403.09;;;10.99;52.60
79138;BME280;68544;45.566;10.238;2024-01-15T09:52:24;98404.44;;;10.60;53.30
79138;BME280;68544;45.566;10.238;2024-01-15T09:54:50;98402.53;;;11.08;52.55
79138;BME280;68544;45.566;10.238;2024-01-15T09:57:16;98405.53;;;11.19;51.29
79138;BME280;68544;45.566;10.238;2024-01-15T09:59:43;98400.84;;;10.96;51.45
79138;BME280;68544;45.566;10.238;2024-01-15T10:02:09;98392.75;;;10.96;51.47
79138;BME280;68544;45.566;10.238;2024-01-15T10:04:38;98381.75;;;10.79;52.13
79138;BME280;68544;45.566;10.238;2024-01-15T10:07:05;98375.53;;;11.61;50.48
79138;BME280;68544;45.566;10.238;2024-01-15T10:09:31;98365.47;;;11.68;50.12
79138;BME280;68544;45.566;10.238;2024-01-15T10:11:57;98373.13;;;11.71;49.07
79138;BME280;68544;45.566;10.238;2024-01-15T10:14:23;98363.53;;;12.27;47.64
79138;BME280;68544;45.566;10.238;2024-01-15T10:16:48;98350.84;;;12.27;46.74
79138;BME280;68544;45.566;10.238;2024-01-15T10:19:13;98361.22;;;12.58;45.65
79138;BME280;68544;45.566;10.238;2024-01-15T10:21:39;98358.00;;;13.01;45.16
79138;BME280;68544;45.566;10.238;2024-01-15T10:24:04;98360.19;;;14.32;42.75
79138;BME280;68544;45.566;10.238;2024-01-15T10:26:30;98362.00;;;14.10;41.68
79138;BME280;68544;45.566;10.238;2024-01-15T10:28:57;98354.44;;;16.30;37.77
79138;BME280;68544;45.566;10.238;2024-01-15T10:31:23;98350.50;;;17.35;34.00
79138;BME280;68544;45.566;10.238;2024-01-15T10:33:49;98347.16;;;15.57;37.70
79138;BME280;68544;45.566;10.238;2024-01-15T10:36:15;98330.19;;;16.29;37.59
79138;BME280;68544;45.566;10.238;2024-01-15T10:38:42;98348.31;;;18.97;33.53
79138;BME280;68544;45.566;10.238;2024-01-15T10:41:08;98325.78;;;19.87;30.75
79138;BME280;68544;45.566;10.238;2024-01-15T10:43:33;98328.44;;;22.58;27.55
79138;BME280;68544;45.566;10.238;2024-01-15T10:45:59;98308.38;;;22.98;25.73
79138;BME280;68544;45.566;10.238;2024-01-15T10:48:26;98312.28;;;23.77;25.01
79138;BME280;68544;45.566;10.238;2024-01-15T10:50:53;98310.13;;;20.87;28.42
79138;BME280;68544;45.566;10.238;2024-01-15T10:53:21;98313.59;;;18.13;33.38
79138;BME280;68544;45.566;10.238;2024-01-15T10:55:48;98316.34;;;17.07;35.30
79138;BME280;68544;45.566;10.238;2024-01-15T10:58:15;98323.41;;;16.31;37.37
79138;BME280;68544;45.566;10.238;2024-01-15T11:00:43;98312.81;;;15.88;38.13
79138;BME280;68544;45.566;10.238;2024-01-15T11:03:08;98305.66;;;16.19;38.01
79138;BME280;68544;45.566;10.238;2024-01-15T11:05:41;98305.47;;;18.77;33.84
79138;BME280;68544;45.566;10.238;2024-01-15T11:08:07;98296.44;;;22.89;26.99
79138;BME280;68544;45.566;10.238;2024-01-15T11:10:47;98291.34;;;25.42;22.77
79138;BME280;68544;45.566;10.238;2024-01-15T11:16:02;98272.16;;;28.89;17.75
79138;BME280;68544;45.566;10.238;2024-01-15T11:18:34;98289.94;;;28.40;17.22
79138;BME280;68544;45.566;10.238;2024-01-15T11:23:53;98259.91;;;29.70;16.43
79138;BME280;68544;45.566;10.238;2024-01-15T11:26:32;98254.66;;;30.70;15.20
79138;BME280;68544;45.566;10.238;2024-01-15T11:29:00;98241.59;;;30.90;14.66
79138;BME280;68544;45.566;10.238;2024-01-15T11:31:56;98222.16;;;28.77;16.24
79138;BME280;68544;45.566;10.238;2024-01-15T11:34:15;98232.25;;;29.89;15.42
79138;BME280;68544;45.566;10.238;2024-01-15T11:41:57;98210.28;;;29.04;16.06
79138;BME280;68544;45.566;10.238;2024-01-15T11:44:23;98209.13;;;30.31;14.42
79138;BME280;68544;45.566;10.238;2024-01-15T11:47:02;98188.78;;;30.62;13.69
79138;BME280;68544;45.566;10.238;2024-01-15T11:52:22;98171.78;;;32.46;11.68
79138;BME280;68544;45.566;10.238;2024-01-15T11:55:06;98167.16;;;31.29;12.33
79138;BME280;68544;45.566;10.238;2024-01-15T12:00:05;98148.09;;;30.11;13.20
79138;BME280;68544;45.566;10.238;2024-01-15T12:02:32;98149.25;;;30.10;13.28
79138;BME280;68544;45.566;10.238;2024-01-15T12:04:57;98141.63;;;31.27;12.15
79138;BME280;68544;45.566;10.238;2024-01-15T12:07:23;98140.34;;;30.51;12.36
79138;BME280;68544;45.566;10.238;2024-01-15T12:09:48;98136.88;;;28.93;14.11
79138;BME280;68544;45.566;10.238;2024-01-15T12:12:24;98131.94;;;30.67;12.66
79138;BME280;68544;45.566;10.238;2024-01-15T12:14:51;98119.94;;;30.82;12.10
79138;BME280;68544;45.566;10.238;2024-01-15T12:17:16;98113.94;;;32.24;11.33
79138;BME280;68544;45.566;10.238;2024-01-15T12:19:43;98115.31;;;32.37;11.04
79138;BME280;68544;45.566;10.238;2024-01-15T12:22:08;98113.25;;;31.63;11.53
79138;BME280;68544;45.566;10.238;2024-01-15T12:24:34;98102.09;;;31.63;11.36
79138;BME280;68544;45.566;10.238;2024-01-15T12:27:00;98100.44;;;31.84;11.14
79138;BME280;68544;45.566;10.238;2024-01-15T12:29:26;98092.78;;;31.78;11.48
79138;BME280;68544;45.566;10.238;2024-01-15T12:31:53;98078.75;;;31.97;11.65
79138;BME280;68544;45.566;10.238;2024-01-15T12:34:18;98067.28;;;32.54;11.21
79138;BME280;68544;45.566;10.238;2024-01-15T12:36:46;98057.50;;;33.01;10.88
79138;BME280;68544;45.566;10.238;2024-01-15T12:39:11;98050.34;;;31.69;11.85
79138;BME280;68544;45.566;10.238;2024-01-15T12:41:38;98046.00;;;30.69;13.34
79138;BME280;68544;45.566;10.238;2024-01-15T12:44:04;98076.38;;;24.58;20.77
79138;BME280;68544;45.566;10.238;2024-01-15T12:46:30;98077.66;;;20.74;25.94
79138;BME280;68544;45.566;10.238;2024-01-15T12:48:56;98084.78;;;18.77;29.65
79138;BME280;68544;45.566;10.238;2024-01-15T12:51:25;98071.13;;;17.95;31.59
79138;BME280;68544;45.566;10.238;2024-01-15T12:53:51;98056.13;;;17.28;31.80
79138;BME280;68544;45.566;10.238;2024-01-15T12:56:16;98049.69;;;16.44;33.86
79138;BME280;68544;45.566;10.238;2024-01-15T12:58:41;98043.59;;;15.76;35.73
79138;BME280;68544;45.566;10.238;2024-01-15T13:01:07;98041.88;;;15.45;36.90
79138;BME280;68544;45.566;10.238;2024-01-15T13:03:32;98041.03;;;14.93;37.89
79138;BME280;68544;45.566;10.238;2024-01-15T13:05:58;98056.75;;;14.86;38.57
79138;BME280;68544;45.566;10.238;2024-01-15T13:08:23;98055.41;;;14.47;39.57
79138;BME280;68544;45.566;10.238;2024-01-15T13:10:51;98050.38;;;14.34;39.83